Home > Products > Valid Products > MTR

000
SAUS43 KDTX 230854
MTRP58
METAR KP58 230851Z AUTO 26004KT 01/00 A3024 RMK AO1 SLP248 T00110000
58006





000
SAUS43 KDTX 230754
MTRP58
METAR KP58 230751Z AUTO 26004KT 01/01 A3025 RMK AO1 SLP251 T00110006





000
SAUS43 KDTX 230754
MTRP58
METAR KP58 230751Z AUTO 26004KT 01/01 A3025 RMK AO1 SLP251 T00110006





000
SAUS43 KDTX 230654
MTRP58
METAR KP58 230651Z AUTO 25003KT 01/00 A3026 RMK AO1 SLP255 T00110000





000
SAUS43 KDTX 230554
MTRP58
METAR KP58 230551Z AUTO 25003KT 01/01 A3026 RMK AO1 SLP255 T00110006
10078 20011 56008





000
SAUS43 KDTX 230554
MTRP58
METAR KP58 230551Z AUTO 25003KT 01/01 A3026 RMK AO1 SLP255 T00110006
10078 20011 56008





000
SAUS43 KDTX 230454
MTRP58
METAR KP58 230451Z AUTO 00000KT 01/01 A3027 RMK AO1 SLP256 T00110006
401060011





000
SAUS43 KDTX 230454
MTRP58
METAR KP58 230451Z AUTO 00000KT 01/01 A3027 RMK AO1 SLP256 T00110006
401060011





000
SAUS43 KDTX 230355 COR
MTRP58
METAR KP58 230351Z AUTO 26005KT 02/01 A3028 RMK AO1 SLP261 T00170006





000
SAUS43 KDTX 230355 COR
MTRP58
METAR KP58 230351Z AUTO 26005KT 02/01 A3028 RMK AO1 SLP261 T00170006





000
SAUS43 KDTX 230354
MTRP58
METAR KP58 230351Z AUTO 26005KT 02/01 A3028 RMK AO1 S,jz
REQ ARBMTRP58





000
SAUS43 KDTX 230253
MTRP58
METAR KP58 230251Z AUTO 00000KT 02/01 A3029 RMK AO1 SLP263 T00220011
57005





000
SAUS43 KDTX 230154
MTRP58
METAR KP58 230151Z AUTO 04006KT 08/04 A3029 RMK AO1 SLP262 T00780039





000
SAUS43 KDTX 230154
MTRP58
METAR KP58 230151Z AUTO 04006KT 08/04 A3029 RMK AO1 SLP262 T00780039





000
SAUS43 KDTX 230053
MTRP58
METAR KP58 230051Z AUTO 04006KT 08/04 A3030 RMK AO1 SLP264 T00780039





000
SAUS43 KDTX 230053
MTRP58
METAR KP58 230051Z AUTO 04006KT 08/04 A3030 RMK AO1 SLP264 T00780039





000
SAUS43 KDTX 222354
MTRP58
METAR KP58 222351Z AUTO 04009KT 07/03 A3030 RMK AO1 SLP266 T00720033
10100 20072 56007





000
SAUS43 KDTX 222354
MTRP58
METAR KP58 222351Z AUTO 04009KT 07/03 A3030 RMK AO1 SLP266 T00720033
10100 20072 56007





000
SAUS43 KDTX 222254
MTRP58
METAR KP58 222251Z AUTO 02008KT 07/03 A3031 RMK AO1 SLP268 T00720033





000
SAUS43 KDTX 222254
MTRP58
METAR KP58 222251Z AUTO 02008KT 07/03 A3031 RMK AO1 SLP268 T00720033





000
SAUS43 KDTX 222154 COR
MTRP58
METAR KP58 222151Z AUTO 00000KT 08/03 A3031 RMK AO1 SLP268 T00830033





000
SAUS43 KDTX 222054
MTRP58
METAR KP58 222051Z AUTO 00000KT 08/03 A3032 RMK AO1 SLP273 T00830033
56004





000
SAUS43 KDTX 221955 COR
MTRP58
METAR KP58 221951Z AUTO 00000KT 09/04 A3032 RMK AO1 SLP273 T00940039





000
SAUS43 KDTX 221954
MTRP58
METAR KP58 221951Z AUTO 00000KT 09/04 A3032 RMK AO1 SLP273 T00940039





000
SAUS43 KDTX 221854 COR
MTRP58
METAR KP58 221851Z AUTO 02009KT 09/04 A3032 RMK AO1 SLP271 T00890039





000
SAUS43 KDTX 221754
MTRP58
METAR KP58 221751Z AUTO VRB04KT 09/04 A3034 RMK AO1 SLP276 T00940039
10106 20078 58006





000
SAUS43 KDTX 221754
MTRP58
METAR KP58 221751Z AUTO VRB04KT 09/04 A3034 RMK AO1 SLP276 T00940039
10106 20078 58006





000
SAUS43 KDTX 221654
MTRP58
METAR KP58 221651Z AUTO 36005KT 09/04 A3035 RMK AO1 SLP282 T00940039





000
SAUS43 KDTX 221654
MTRP58
METAR KP58 221651Z AUTO 36005KT 09/04 A3035 RMK AO1 SLP282 T00940039





000
SAUS43 KDTX 221554
MTRP58
METAR KP58 221551Z AUTO 01009KT 08/04 A3036 RMK AO1 SLP284 T00830039





000
SAUS43 KDTX 221554
MTRP58
METAR KP58 221551Z AUTO 01009KT 08/04 A3036 RMK AO1 SLP284 T00830039





000
SAUS43 KDTX 221454
MTRP58
METAR KP58 221451Z AUTO 03010KT 08/04 A3035 RMK AO1 SLP283 T00830039
51013





000
SAUS43 KDTX 221354 COR
MTRP58
METAR KP58 221351Z AUTO 03010KT 08/04 A3034 RMK AO1 SLP279 T00830039





000
SAUS43 KDTX 221252
MTRP58
METAR KP58 221251Z AUTO 04010KT 08/04 A3033 RMK AO1 SLP277 T00780039





000
SAUS43 KDTX 221154
MTRP58
METAR KP58 221151Z AUTO 01007KT 08/04 A3031 RMK AO1 SLP271 T00780039
10078 20072 51019





000
SAUS43 KDTX 221054
MTRP58
METAR KP58 221051Z AUTO 02010KT 08/04 A3030 RMK AO1 SLP264 T00780039





000
SAUS43 KDTX 220954
MTRP58
METAR KP58 220951Z AUTO 03012KT 08/04 A3028 RMK AO1 SLP259 T00780039





000
SAUS43 KDTX 220954
MTRP58
METAR KP58 220951Z AUTO 03012KT 08/04 A3028 RMK AO1 SLP259 T00780039





000
SAUS43 KDTX 220852
MTRP58
METAR KP58 220851Z AUTO 04013KT 08/04 A3026 RMK AO1 SLP251 T00780039
51005





000
SAUS43 KDTX 220753
MTRP58
METAR KP58 220751Z AUTO 05011KT 08/04 A3026 RMK AO1 SLP250 T00780039





000
SAUS43 KDTX 220654
MTRP58
METAR KP58 220651Z AUTO 04015KT 08/04 A3025 RMK AO1 SLP248 T00780039





000
SAUS43 KDTX 220552
MTRP58
METAR KP58 220551Z AUTO 04014KT 08/04 A3024 RMK AO1 SLP246 T00780039
10078 20078 53002





000
SAUS43 KDTX 220552
MTRP58
METAR KP58 220551Z AUTO 04014KT 08/04 A3024 RMK AO1 SLP246 T00780039
10078 20078 53002





000
SAUS43 KDTX 220454
MTRP58
METAR KP58 220451Z AUTO 04017KT 08/04 A3024 RMK AO1 SLP245 T00780039
400940078





000
SAUS43 KDTX 220454
MTRP58
METAR KP58 220451Z AUTO 04017KT 08/04 A3024 RMK AO1 SLP245 T00780039
400940078





000
SAUS43 KDTX 220353
MTRP58
METAR KP58 220351Z AUTO 04020KT 08/04 A3024 RMK AO1 SLP244 T00780039





000
SAUS43 KDTX 220254
MTRP58
METAR KP58 220251Z AUTO 03020KT 08/04 A3024 RMK AO1 SLP243 T00780039
51016





000
SAUS43 KDTX 220254
MTRP58
METAR KP58 220251Z AUTO 03020KT 08/04 A3024 RMK AO1 SLP243 T00780039
51016





000
SAUS43 KDTX 220154
MTRP58
METAR KP58 220151Z AUTO 02017G23KT 08/03 A3023 RMK AO1 PK WND
03026/0056 SLP240 T00780028





000
SAUS43 KDTX 220054
MTRP58
METAR KP58 220051Z AUTO 02016G24KT 08/03 A3021 RMK AO1 PK WND
03026/0022 SLP234 T00780028





000
SAUS43 KDTX 212354
MTRP58
METAR KP58 212351Z AUTO 01015G22KT 08/03 A3019 RMK AO1 SLP226
T00780028 10078 20078 51020





000
SAUS43 KDTX 212254
MTRP58
METAR KP58 212251Z AUTO 01014G23KT 08/02 A3017 RMK AO1 SLP221
T00780022





000
SAUS43 KDTX 212254
MTRP58
METAR KP58 212251Z AUTO 01014G23KT 08/02 A3017 RMK AO1 SLP221
T00780022





000
SAUS43 KDTX 212052
MTRP58
METAR KP58 212051Z AUTO 01017G24KT 08/03 A3013 RMK AO1 SLP206
T00780028 53018





000
SAUS43 KDTX 211954
MTRP58
METAR KP58 211951Z AUTO 36012G27KT 08/03 A3011 RMK AO1 PK WND
01027/1909 SLP199 T00780028





000
SAUS43 KDTX 211852
MTRP58
METAR KP58 211851Z AUTO 36018G28KT 08/03 A3009 RMK AO1 PK WND
01028/1851 SLP193 T00780033





000
SAUS43 KDTX 211754
MTRP58
METAR KP58 211751Z AUTO 01016G23KT 08/04 A3007 RMK AO1 PK WND
01026/1737 SLP187 T00780044 10083 20078 51014





000
SAUS43 KDTX 211654
MTRP58
METAR KP58 211651Z AUTO 08/04 A3007 RMK AO1 PK WND 01027/1616 SLP185
T00780044





000
SAUS43 KDTX 211654
MTRP58
METAR KP58 211651Z AUTO 08/04 A3007 RMK AO1 PK WND 01027/1616 SLP185
T00780044





000
SAUS43 KDTX 211554
MTRP58
METAR KP58 211551Z AUTO 01017G23KT 08/04 A3005 RMK AO1 PK WND
02028/1533 SLP180 T00780044





000
SAUS43 KDTX 211554
MTRP58
METAR KP58 211551Z AUTO 01017G23KT 08/04 A3005 RMK AO1 PK WND
02028/1533 SLP180 T00780044





000
SAUS43 KDTX 211454
MTRP58
METAR KP58 211451Z AUTO 02017G24KT 08/04 A3003 RMK AO1 PK WND
02027/1414 SLP172 T00830044 51022





000
SAUS43 KDTX 211353
MTRP58
METAR KP58 211351Z AUTO VRB06G24KT 08/05 A3002 RMK AO1 SLP168
T00780050





000
SAUS43 KDTX 211253
MTRP58
METAR KP58 211251Z AUTO 36013G25KT 08/04 A2999 RMK AO1 SLP160
T00780044





000
SAUS43 KDTX 211154
MTRP58
METAR KP58 211151Z AUTO 36011G23KT 08/05 A2996 RMK AO1 SLP149 60002
70015 T00830050 10094 20083 53025





000
SAUS43 KDTX 211154
MTRP58
METAR KP58 211151Z AUTO 36011G23KT 08/05 A2996 RMK AO1 SLP149 60002
70015 T00830050 10094 20083 53025





000
SAUS43 KDTX 211054
MTRP58
METAR KP58 211051Z AUTO 01014G21KT 08/05 A2994 RMK AO1 SLP140
T00830050





000
SAUS43 KDTX 211054
MTRP58
METAR KP58 211051Z AUTO 01014G21KT 08/05 A2994 RMK AO1 SLP140
T00830050





000
SAUS43 KDTX 210954
MTRP58
METAR KP58 210951Z AUTO 01014G22KT 08/05 A2991 RMK AO1 SLP132
T00830050





000
SAUS43 KDTX 210854
MTRP58
METAR KP58 210851Z AUTO 01011G20KT 09/06 A2989 RMK AO1 SLP124 60002
T00890056 53013





000
SAUS43 KDTX 210754
MTRP58
METAR KP58 210751Z AUTO 01011G20KT 09/06 A2988 RMK AO1 SLP118 P0001
T00890061





000
SAUS43 KDTX 210653
MTRP58
METAR KP58 210651Z AUTO 01013G18KT 09/07 A2987 RMK AO1 SLP115 P0001
T00940072





000
SAUS43 KDTX 210553
MTRP58
METAR KP58 210551Z AUTO VRB06KT 09/08 A2985 RMK AO1 SLP111 P0001
60010 T00940083 10106 20089 51004





000
SAUS43 KDTX 210454
MTRP58
METAR KP58 210451Z AUTO 31010G16KT 09/07 A2985 RMK AO1 SLP110
T00940072 401220078





000
SAUS43 KDTX 210454
MTRP58
METAR KP58 210451Z AUTO 31010G16KT 09/07 A2985 RMK AO1 SLP110
T00940072 401220078





000
SAUS43 KDTX 210353
MTRP58
METAR KP58 210351Z AUTO 31009KT 09/08 A2985 RMK AO1 SLP110 T00940078





000
SAUS43 KDTX 210353
MTRP58
METAR KP58 210351Z AUTO 31009KT 09/08 A2985 RMK AO1 SLP110 T00940078





000
SAUS43 KDTX 210254
MTRP58
METAR KP58 210251Z AUTO 31008KT 10/08 A2984 RMK AO1 SLP107 P0001
60009 T01000078 51006





000
SAUS43 KDTX 210254
MTRP58
METAR KP58 210251Z AUTO 31008KT 10/08 A2984 RMK AO1 SLP107 P0001
60009 T01000078 51006





000
SAUS43 KDTX 210154
MTRP58
METAR KP58 210151Z AUTO 32005KT 10/08 A2984 RMK AO1 SLP106 P0001
T01000078





000
SAUS43 KDTX 210154
MTRP58
METAR KP58 210151Z AUTO 32005KT 10/08 A2984 RMK AO1 SLP106 P0001
T01000078





000
SAUS43 KDTX 210054
MTRP58
METAR KP58 210051Z AUTO VRB03KT 10/08 A2983 RMK AO1 SLP105 P0007
T01000083





000
SAUS43 KDTX 202354
MTRP58
METAR KP58 202351Z AUTO 31004KT 11/09 A2982 RMK AO1 SLP101 P0002
60002 T01060094 10122 20106 53017





000
SAUS43 KDTX 202254
MTRP58
METAR KP58 202251Z AUTO 00000KT 11/09 A2980 RMK AO1 SLP093 T01110089





000
SAUS43 KDTX 202254
MTRP58
METAR KP58 202251Z AUTO 00000KT 11/09 A2980 RMK AO1 SLP093 T01110089





000
SAUS43 KDTX 202154
MTRP58
METAR KP58 202151Z AUTO 25003KT 11/08 A2978 RMK AO1 SLP087 T01110083





000
SAUS43 KDTX 202154
MTRP58
METAR KP58 202151Z AUTO 25003KT 11/08 A2978 RMK AO1 SLP087 T01110083





000
SAUS43 KDTX 202054
MTRP58
METAR KP58 202051Z AUTO VRB04KT 11/08 A2977 RMK AO1 SLP083 T01110083
53006





000
SAUS43 KDTX 201953
MTRP58
METAR KP58 201951Z AUTO 27005KT 12/08 A2976 RMK AO1 SLP081 T01170083





000
SAUS43 KDTX 201854
MTRP58
METAR KP58 201851Z AUTO 27003KT 12/08 A2975 RMK AO1 SLP078 T01170083





000
SAUS43 KDTX 201754 COR
MTRP58
METAR KP58 201751Z AUTO VRB05KT 12/08 A2975 RMK AO1 SLP077 60001
T01170083 10117 20083 58009





000
SAUS43 KDTX 201654
MTRP58
METAR KP58 201651Z AUTO VRB04KT 11/08 A2977 RMK AO1 SLP083 T01060083





000
SAUS43 KDTX 201554
MTRP58
METAR KP58 201551Z AUTO 24006KT 10/08 A2977 RMK AO1 SLP085 P0001
T01000078





000
SAUS43 KDTX 201454
MTRP58
METAR KP58 201451Z AUTO 23007KT 09/07 A2978 RMK AO1 SLP087 T00940072
58000





000
SAUS43 KDTX 201354
MTRP58
METAR KP58 201351Z AUTO 22007KT 09/07 A2978 RMK AO1 SLP087 T00890072





000
SAUS43 KDTX 201252
MTRP58
METAR KP58 201251Z AUTO 22007KT 08/07 A2979 RMK AO1 SLP091 T00830067





000
SAUS43 KDTX 201154
MTRP58
METAR KP58 201151Z AUTO VRB06KT 08/07 A2978 RMK AO1 SLP089 60018
70018 T00830067 10083 20078 58007





000
SAUS43 KDTX 201053
MTRP58
METAR KP58 201051Z AUTO 21008KT 170V230 08/06 A2978 RMK AO1 SLP089
P0003 T00780061





000
SAUS43 KDTX 201053
MTRP58
METAR KP58 201051Z AUTO 21008KT 170V230 08/06 A2978 RMK AO1 SLP089
P0003 T00780061





000
SAUS43 KDTX 200952
MTRP58
METAR KP58 200951Z AUTO 21007KT 08/06 A2980 RMK AO1 SLP095 P0007
T00780061





000
SAUS43 KDTX 200952
MTRP58
METAR KP58 200951Z AUTO 21007KT 08/06 A2980 RMK AO1 SLP095 P0007
T00780061





    US Dept of Commerce
    National Oceanic and Atmospheric Administration
    National Weather Service
    1325 East West Highway
    Silver Spring, MD 20910
    Page Author: NWS Internet Services Team
Disclaimer
Information Quality
Credits
Glossary
Privacy Policy
Freedom of Information Act (FOIA)
About Us
Career Opportunities